createdAt,value
2023-05-19T00:00:19.662Z,102269.91
2023-05-19T00:02:52.490Z,102261.97
2023-05-19T00:05:25.240Z,102263.69
2023-05-19T00:08:03.733Z,102262.72
2023-05-19T00:10:36.593Z,102258.31
2023-05-19T00:13:09.485Z,102260.97
2023-05-19T00:15:42.141Z,102257.34
2023-05-19T00:18:16.539Z,102254.69
2023-05-19T00:20:52.399Z,102255.59
2023-05-19T00:23:25.008Z,102254.69
2023-05-19T00:25:57.578Z,102247.63
2023-05-19T00:28:30.209Z,102245.81
2023-05-19T00:31:06.419Z,102245.78
2023-05-19T00:33:38.961Z,102237.88
2023-05-19T00:36:11.606Z,102233.44
2023-05-19T00:38:44.717Z,102232.50
2023-05-19T00:41:17.544Z,102233.38
2023-05-19T00:43:51.256Z,102232.41
2023-05-19T00:46:23.900Z,102235.09
2023-05-19T00:48:56.530Z,102228.06
2023-05-19T00:51:32.133Z,102228.94
2023-05-19T00:54:05.210Z,102222.75
2023-05-19T00:56:37.898Z,102226.31
2023-05-19T00:59:10.572Z,102241.16
2023-05-19T01:01:43.240Z,102235.91
2023-05-19T01:04:18.819Z,102235.88
2023-05-19T01:06:55.364Z,102234.06
2023-05-19T01:09:28.163Z,102235.75
2023-05-19T01:12:01.570Z,102229.53
2023-05-19T01:14:34.126Z,102233.00
2023-05-19T01:17:24.268Z,102231.22
2023-05-19T01:20:05.005Z,102236.50
2023-05-19T01:22:57.146Z,102236.53
2023-05-19T01:25:47.955Z,102234.75
2023-05-19T01:28:36.929Z,102232.03
2023-05-19T01:31:11.754Z,102231.91
2023-05-19T01:33:45.362Z,102234.63
2023-05-19T01:36:20.396Z,102228.41
2023-05-19T01:38:56.255Z,102232.91
2023-05-19T01:41:30.741Z,102232.78
2023-05-19T01:44:03.475Z,102226.66
2023-05-19T01:46:37.599Z,102221.38
2023-05-19T01:49:11.092Z,102221.38
2023-05-19T01:51:43.782Z,102216.91
2023-05-19T01:54:16.226Z,102218.66
2023-05-19T01:57:09.934Z,102217.81
2023-05-19T02:00:08.351Z,102210.69
2023-05-19T02:03:25.144Z,102209.81
2023-05-19T02:06:32.789Z,102211.53
2023-05-19T02:09:26.897Z,102211.44
2023-05-19T02:12:06.287Z,102210.53
2023-05-19T02:14:45.511Z,102203.34
2023-05-19T02:17:19.910Z,102209.50
2023-05-19T02:19:52.438Z,102208.63
2023-05-19T02:22:25.339Z,102200.66
2023-05-19T02:24:57.924Z,102205.00
2023-05-19T02:27:30.918Z,102210.19
2023-05-19T02:30:08.229Z,102199.63
2023-05-19T02:32:40.800Z,102203.94
2023-05-19T02:35:14.172Z,102210.84
2023-05-19T02:37:46.690Z,102205.53
2023-05-19T02:40:22.372Z,102195.81
2023-05-19T02:42:55.000Z,102198.47
2023-05-19T02:45:28.630Z,102194.06
2023-05-19T02:48:01.379Z,102197.47
2023-05-19T02:50:34.083Z,102197.47
2023-05-19T02:53:06.672Z,102202.75
2023-05-19T02:55:39.165Z,102187.69
2023-05-19T02:58:11.638Z,102191.19
2023-05-19T03:00:45.150Z,102186.78
2023-05-19T03:03:18.139Z,102186.78
2023-05-19T03:05:50.775Z,102193.78
2023-05-19T03:08:23.369Z,102194.69
2023-05-19T03:10:55.936Z,102189.31
2023-05-19T03:13:28.703Z,102190.19
2023-05-19T03:16:01.991Z,102193.63
2023-05-19T03:18:34.851Z,102194.44
2023-05-19T03:21:07.681Z,102191.75
2023-05-19T03:23:40.250Z,102193.41
2023-05-19T03:26:13.022Z,102197.75
2023-05-19T03:28:45.545Z,102194.09
2023-05-19T03:31:18.121Z,102199.38
2023-05-19T03:33:50.732Z,102200.16
2023-05-19T03:36:23.867Z,102195.72
2023-05-19T03:38:56.327Z,102202.75
2023-05-19T03:41:28.786Z,102207.09
2023-05-19T03:44:01.582Z,102208.84
2023-05-19T03:46:34.066Z,102208.81
2023-05-19T03:49:06.623Z,102207.88
2023-05-19T03:51:39.366Z,102209.56
2023-05-19T03:54:11.898Z,102210.41
2023-05-19T03:56:44.505Z,102213.09
2023-05-19T03:59:16.969Z,102212.19
2023-05-19T04:01:49.767Z,102199.94
2023-05-19T04:04:22.708Z,102205.22
2023-05-19T04:06:55.298Z,102203.47
2023-05-19T04:09:27.810Z,102206.19
2023-05-19T04:12:00.323Z,102205.38
2023-05-19T04:14:32.839Z,102208.03
2023-05-19T04:17:05.572Z,102209.97
2023-05-19T04:19:38.107Z,102208.22
2023-05-19T04:22:10.556Z,102207.50
2023-05-19T04:24:43.084Z,102203.16
2023-05-19T04:27:16.292Z,102198.72
2023-05-19T04:29:49.677Z,102200.63
2023-05-19T04:32:22.613Z,102202.72
2023-05-19T04:34:55.117Z,102209.25
2023-05-19T04:37:27.769Z,102210.19
2023-05-19T04:40:00.240Z,102211.94
2023-05-19T04:42:32.966Z,102208.50
2023-05-19T04:45:08.721Z,102206.75
2023-05-19T04:47:42.001Z,102212.97
2023-05-19T04:50:16.481Z,102218.13
2023-05-19T04:52:49.028Z,102212.09
2023-05-19T04:55:21.948Z,102213.94
2023-05-19T04:57:54.399Z,102217.50
2023-05-19T05:00:27.092Z,102212.00
2023-05-19T05:02:59.691Z,102217.34
2023-05-19T05:05:32.493Z,102214.03
2023-05-19T05:08:05.085Z,102218.56
2023-05-19T05:10:37.628Z,102220.41
2023-05-19T05:13:11.792Z,102222.28
2023-05-19T05:15:44.830Z,102212.50
2023-05-19T05:18:17.851Z,102213.56
2023-05-19T05:20:50.810Z,102217.09
2023-05-19T05:23:23.525Z,102219.84
2023-05-19T05:25:56.269Z,102214.75
2023-05-19T05:28:28.797Z,102230.59
2023-05-19T05:31:01.289Z,102224.44
2023-05-19T05:33:33.825Z,102221.09
2023-05-19T05:36:06.827Z,102227.31
2023-05-19T05:38:39.378Z,102230.91
2023-05-19T05:41:11.915Z,102216.91
2023-05-19T05:43:44.357Z,102228.38
2023-05-19T05:46:16.839Z,102224.91
2023-05-19T05:48:49.707Z,102221.34
2023-05-19T05:51:23.130Z,102224.22
2023-05-19T05:53:56.183Z,102219.84
2023-05-19T05:56:28.970Z,102218.09
2023-05-19T05:59:02.012Z,102220.78
2023-05-19T06:01:35.979Z,102220.88
2023-05-19T06:04:08.474Z,102227.06
2023-05-19T06:06:41.110Z,102226.25
2023-05-19T06:09:13.605Z,102229.84
2023-05-19T06:11:46.160Z,102227.22
2023-05-19T06:14:18.781Z,102237.03
2023-05-19T06:16:51.348Z,102238.78
2023-05-19T06:19:25.450Z,102230.00
2023-05-19T06:21:58.328Z,102231.75
2023-05-19T06:24:31.010Z,102227.38
2023-05-19T06:27:03.869Z,102231.78
2023-05-19T06:29:36.535Z,102237.09
2023-05-19T06:32:08.981Z,102227.38
2023-05-19T06:34:41.502Z,102232.66
2023-05-19T06:37:16.956Z,102231.78
2023-05-19T06:39:53.718Z,102236.16
2023-05-19T06:42:26.379Z,102238.84
2023-05-19T06:44:58.853Z,102238.81
2023-05-19T06:47:31.331Z,102237.88
2023-05-19T06:50:04.179Z,102222.84
2023-05-19T06:52:38.074Z,102235.16
2023-05-19T06:55:10.575Z,102230.72
2023-05-19T06:57:43.397Z,102227.22
2023-05-19T07:00:18.289Z,102228.03
2023-05-19T07:02:52.629Z,102226.22
2023-05-19T07:05:25.168Z,102227.00
2023-05-19T07:07:57.625Z,102225.09
2023-05-19T07:10:30.206Z,102232.16
2023-05-19T07:13:02.731Z,102229.44
2023-05-19T07:15:35.290Z,102227.75
2023-05-19T07:18:07.796Z,102220.47
2023-05-19T07:20:40.624Z,102223.84
2023-05-19T07:23:13.262Z,102227.28
2023-05-19T07:25:45.850Z,102231.44
2023-05-19T07:28:18.342Z,102228.88
2023-05-19T07:30:50.822Z,102224.34
2023-05-19T07:33:23.485Z,102226.22
2023-05-19T07:35:56.420Z,102230.66
2023-05-19T07:38:31.363Z,102234.88
2023-05-19T07:41:04.350Z,102232.00
2023-05-19T07:43:36.793Z,102227.50
2023-05-19T07:46:09.295Z,102233.50
2023-05-19T07:48:41.822Z,102209.19
2023-05-19T07:51:14.530Z,102213.56
2023-05-19T07:53:47.193Z,102212.16
2023-05-19T07:56:19.722Z,102218.78
2023-05-19T07:58:52.205Z,102218.03
2023-05-19T08:01:24.679Z,102222.13
2023-05-19T08:03:57.861Z,102213.03
2023-05-19T08:06:31.821Z,102214.84
2023-05-19T08:09:05.470Z,102214.31
2023-05-19T08:11:37.927Z,102219.63
2023-05-19T08:14:10.870Z,102220.25
2023-05-19T08:16:43.853Z,102208.25
2023-05-19T08:19:16.427Z,102206.31
2023-05-19T08:21:49.649Z,102208.88
2023-05-19T08:24:22.187Z,102200.47
2023-05-19T08:26:54.669Z,102203.25
2023-05-19T08:29:27.186Z,102201.69
2023-05-19T08:32:00.301Z,102202.13
2023-05-19T08:34:32.881Z,102196.94
2023-05-19T08:37:05.411Z,102188.03
2023-05-19T08:39:37.939Z,102186.44
2023-05-19T08:42:18.554Z,102179.97
2023-05-19T08:44:51.444Z,102180.16
2023-05-19T08:47:24.274Z,102175.28
2023-05-19T08:50:05.248Z,102172.72
2023-05-19T08:52:58.319Z,102174.09
2023-05-19T08:55:39.647Z,102167.94
2023-05-19T08:58:12.965Z,102174.41
2023-05-19T09:00:46.575Z,102168.34
2023-05-19T09:03:24.051Z,102172.03
2023-05-19T09:05:56.882Z,102162.56
2023-05-19T09:08:29.523Z,102159.44
2023-05-19T09:11:02.124Z,102160.09
2023-05-19T09:13:34.866Z,102153.75
2023-05-19T09:16:08.186Z,102159.97
2023-05-19T09:18:43.259Z,102147.16
2023-05-19T09:21:16.369Z,102144.06
2023-05-19T09:23:49.655Z,102142.53
2023-05-19T09:26:23.416Z,102139.31
2023-05-19T09:28:58.239Z,102146.81
2023-05-19T09:31:33.153Z,102135.25
2023-05-19T09:34:12.734Z,102133.66
2023-05-19T09:36:49.459Z,102128.03
2023-05-19T09:39:25.904Z,102126.34
2023-05-19T09:41:58.928Z,102136.56
2023-05-19T09:44:32.578Z,102139.78
2023-05-19T09:47:05.161Z,102140.97
2023-05-19T09:49:38.567Z,102140.22
2023-05-19T09:52:16.195Z,102138.41
2023-05-19T09:54:49.101Z,102143.97
2023-05-19T09:57:28.278Z,102147.63
2023-05-19T10:00:01.109Z,102149.75
2023-05-19T10:02:34.017Z,102146.97
2023-05-19T10:05:07.461Z,102152.56
2023-05-19T10:07:40.919Z,102135.69
2023-05-19T10:10:14.098Z,102130.41
2023-05-19T10:12:49.911Z,102127.28
2023-05-19T10:15:30.474Z,102133.97
2023-05-19T10:18:03.775Z,102136.94
2023-05-19T10:20:37.254Z,102130.59
2023-05-19T10:23:09.925Z,102125.75
2023-05-19T10:25:43.175Z,102141.75
2023-05-19T10:28:20.351Z,102133.94
2023-05-19T10:30:56.329Z,102141.03
2023-05-19T10:34:06.620Z,102123.28
2023-05-19T10:36:49.763Z,102124.84
2023-05-19T10:39:28.115Z,102114.31
2023-05-19T10:42:16.906Z,102117.06
2023-05-19T10:45:16.268Z,102109.50
2023-05-19T10:47:50.838Z,102116.34
2023-05-19T10:50:23.463Z,102112.56
2023-05-19T10:52:56.698Z,102104.47
2023-05-19T10:55:46.784Z,102107.56
2023-05-19T10:58:44.048Z,102105.56
2023-05-19T11:01:18.393Z,102108.72
2023-05-19T11:03:54.742Z,102101.13
2023-05-19T11:06:28.527Z,102102.50
2023-05-19T11:09:12.954Z,102109.66
2023-05-19T11:11:50.502Z,102106.09
2023-05-19T11:14:26.819Z,102104.34
2023-05-19T11:17:02.980Z,102102.34
2023-05-19T11:19:36.107Z,102105.84
2023-05-19T11:22:13.695Z,102096.25
2023-05-19T11:24:50.143Z,102109.63
2023-05-19T11:27:31.963Z,102106.53
2023-05-19T11:30:08.913Z,102110.28
2023-05-19T11:32:44.385Z,102096.50
2023-05-19T11:35:19.057Z,102101.16
2023-05-19T11:37:54.713Z,102105.22
2023-05-19T11:40:27.281Z,102093.56
2023-05-19T11:43:01.686Z,102105.34
2023-05-19T11:45:35.012Z,102088.78
2023-05-19T11:48:15.516Z,102091.50
2023-05-19T11:50:48.345Z,102081.50
2023-05-19T11:53:21.258Z,102080.31
2023-05-19T11:55:54.924Z,102085.97
2023-05-19T11:58:27.892Z,102077.25
2023-05-19T12:01:04.072Z,102083.84
2023-05-19T12:03:36.824Z,102071.09
2023-05-19T12:06:10.266Z,102064.09
2023-05-19T12:08:42.963Z,102066.31
2023-05-19T12:11:16.553Z,102062.66
2023-05-19T12:13:54.474Z,102067.34
2023-05-19T12:16:35.758Z,102066.44
2023-05-19T12:19:08.584Z,102049.56
2023-05-19T12:21:41.326Z,102047.19
2023-05-19T12:24:14.049Z,102057.03
2023-05-19T12:26:47.124Z,102062.09
2023-05-19T12:29:19.620Z,102070.28
2023-05-19T12:31:52.147Z,102058.84
2023-05-19T12:34:27.484Z,102053.66
2023-05-19T12:37:02.456Z,102048.34
2023-05-19T12:39:35.917Z,102048.31
2023-05-19T12:42:09.902Z,102045.75
2023-05-19T12:44:48.181Z,102031.94
2023-05-19T12:47:21.028Z,102048.66
2023-05-19T12:50:00.330Z,102038.19
2023-05-19T12:52:37.659Z,102034.72
2023-05-19T12:55:14.162Z,102024.75
2023-05-19T12:57:52.743Z,102033.78
2023-05-19T13:00:28.431Z,102026.34
2023-05-19T13:03:05.132Z,102024.03
2023-05-19T13:05:40.029Z,102018.41
2023-05-19T13:08:14.504Z,102023.34
2023-05-19T13:10:47.587Z,102023.63
2023-05-19T13:13:20.170Z,102016.38
2023-05-19T13:15:52.849Z,102020.69
2023-05-19T13:18:27.429Z,102019.06
2023-05-19T13:20:59.917Z,102012.81
2023-05-19T13:23:32.404Z,102007.13
2023-05-19T13:26:05.422Z,102005.19
2023-05-19T13:28:37.916Z,102001.66
2023-05-19T13:31:10.608Z,101996.31
2023-05-19T13:33:43.108Z,102008.38
2023-05-19T13:36:15.653Z,102000.81
2023-05-19T13:38:48.164Z,102002.91
2023-05-19T13:41:26.123Z,102009.06
2023-05-19T13:44:01.718Z,101999.53
2023-05-19T13:46:44.610Z,101992.03
2023-05-19T13:49:18.922Z,101996.75
2023-05-19T13:51:51.442Z,102003.50
2023-05-19T13:54:24.186Z,102000.81
2023-05-19T13:56:56.645Z,101999.97
2023-05-19T13:59:29.646Z,101998.84
2023-05-19T14:02:06.561Z,101986.66
2023-05-19T14:04:39.829Z,101988.41
2023-05-19T14:07:12.336Z,101987.31
2023-05-19T14:09:46.064Z,101992.81
2023-05-19T14:12:19.165Z,101978.47
2023-05-19T14:14:51.895Z,101979.72
2023-05-19T14:17:28.462Z,101989.41
2023-05-19T14:20:01.484Z,101997.19
2023-05-19T14:22:34.047Z,101984.13
2023-05-19T14:25:07.096Z,101986.31
2023-05-19T14:27:42.509Z,101980.97
2023-05-19T14:30:14.949Z,101969.56
2023-05-19T14:32:47.715Z,101990.03
2023-05-19T14:35:20.329Z,101982.63
2023-05-19T14:37:53.148Z,101982.47
2023-05-19T14:40:25.698Z,101982.88
2023-05-19T14:42:58.214Z,101982.16
2023-05-19T14:45:30.913Z,101979.00
2023-05-19T14:48:03.530Z,101981.09
2023-05-19T14:50:36.017Z,101975.34
2023-05-19T14:53:08.506Z,101980.75
2023-05-19T14:55:41.040Z,101978.41
2023-05-19T14:58:27.601Z,101980.09
2023-05-19T15:01:01.122Z,101968.88
2023-05-19T15:03:33.951Z,101975.00
2023-05-19T15:06:10.842Z,101970.06
2023-05-19T15:08:43.426Z,101961.22
2023-05-19T15:11:15.864Z,101958.41
2023-05-19T15:13:48.436Z,101955.53
2023-05-19T15:16:20.984Z,101954.31
2023-05-19T15:18:53.525Z,101955.72
2023-05-19T15:21:26.243Z,101956.84
2023-05-19T15:23:58.718Z,101967.75
2023-05-19T15:26:31.633Z,101962.22
2023-05-19T15:29:04.093Z,101960.25
2023-05-19T15:31:38.121Z,101954.56
2023-05-19T15:34:10.983Z,101957.44
2023-05-19T15:36:43.437Z,101955.88
2023-05-19T15:39:15.969Z,101955.22
2023-05-19T15:41:50.724Z,101953.25
2023-05-19T15:44:23.233Z,101951.97
2023-05-19T15:46:55.909Z,101953.66
2023-05-19T15:49:28.434Z,101945.03
2023-05-19T15:52:00.876Z,101945.94
2023-05-19T15:54:33.491Z,101948.59
2023-05-19T15:57:05.982Z,101934.19
2023-05-19T15:59:38.423Z,101937.75
2023-05-19T16:02:11.358Z,101941.66
2023-05-19T16:04:43.840Z,101934.41
2023-05-19T16:07:16.921Z,101935.03
2023-05-19T16:09:50.031Z,101931.25
2023-05-19T16:12:23.689Z,101927.38
2023-05-19T16:15:02.574Z,101921.50
2023-05-19T16:17:35.299Z,101929.09
2023-05-19T16:20:08.388Z,101915.31
2023-05-19T16:22:41.065Z,101925.41
2023-05-19T16:25:13.670Z,101925.75
2023-05-19T16:27:46.167Z,101930.56
2023-05-19T16:30:18.794Z,101925.34
2023-05-19T16:32:53.034Z,101923.44
2023-05-19T16:35:27.818Z,101914.91
2023-05-19T16:38:00.453Z,101917.66
2023-05-19T16:40:33.024Z,101914.41
2023-05-19T16:43:05.651Z,101909.69
2023-05-19T16:45:38.223Z,101911.03
2023-05-19T16:48:11.238Z,101912.63
2023-05-19T16:50:43.804Z,101912.91
2023-05-19T16:53:16.427Z,101906.63
2023-05-19T16:55:48.875Z,101910.63
2023-05-19T16:58:21.709Z,101908.56
2023-05-19T17:00:54.487Z,101910.78
2023-05-19T17:03:27.229Z,101912.16
2023-05-19T17:06:00.878Z,101911.28
2023-05-19T17:08:33.774Z,101910.34
2023-05-19T17:11:06.568Z,101915.63
2023-05-19T17:13:39.572Z,101911.53
2023-05-19T17:16:12.033Z,101915.84
2023-05-19T17:18:44.524Z,101914.78
2023-05-19T17:21:17.696Z,101912.88
2023-05-19T17:23:50.255Z,101908.59
2023-05-19T17:26:22.675Z,101911.88
2023-05-19T17:28:55.468Z,101904.84
2023-05-19T17:31:28.330Z,101909.06
2023-05-19T17:34:00.823Z,101906.56
2023-05-19T17:36:33.283Z,101907.75
2023-05-19T17:39:05.811Z,101910.66
2023-05-19T17:41:38.356Z,101910.13
2023-05-19T17:44:11.121Z,101915.25
2023-05-19T17:46:43.618Z,101908.38
2023-05-19T17:49:16.179Z,101900.59
2023-05-19T17:51:48.951Z,101913.78
2023-05-19T17:54:22.046Z,101910.78
2023-05-19T17:56:57.766Z,101910.00
2023-05-19T17:59:30.547Z,101907.88
2023-05-19T18:02:03.810Z,101910.00
2023-05-19T18:04:36.679Z,101912.50
2023-05-19T18:07:09.847Z,101900.25
2023-05-19T18:09:47.782Z,101904.66
2023-05-19T18:12:21.230Z,101907.34
2023-05-19T18:14:53.605Z,101900.66
2023-05-19T18:17:26.144Z,101909.09
2023-05-19T18:19:58.702Z,101908.72
2023-05-19T18:22:31.397Z,101905.13
2023-05-19T18:25:04.169Z,101912.53
2023-05-19T18:27:36.586Z,101915.91
2023-05-19T18:30:09.448Z,101912.22
2023-05-19T18:32:42.326Z,101916.25
2023-05-19T18:35:14.868Z,101909.25
2023-05-19T18:37:47.440Z,101915.44
2023-05-19T18:40:19.896Z,101917.53
2023-05-19T18:42:52.374Z,101907.94
2023-05-19T18:45:24.808Z,101915.19
2023-05-19T18:47:57.292Z,101918.50
2023-05-19T18:50:30.118Z,101923.78
2023-05-19T18:53:02.681Z,101922.25
2023-05-19T18:55:37.080Z,101924.38
2023-05-19T18:58:10.890Z,101932.31
2023-05-19T19:00:43.268Z,101926.88
2023-05-19T19:03:15.861Z,101930.09
2023-05-19T19:05:56.724Z,101935.50
2023-05-19T19:08:29.198Z,101940.25
2023-05-19T19:11:01.757Z,101941.16
2023-05-19T19:13:34.252Z,101943.34
2023-05-19T19:16:07.283Z,101944.00
2023-05-19T19:18:39.906Z,101940.28
2023-05-19T19:21:12.466Z,101939.63
2023-05-19T19:23:44.915Z,101942.91
2023-05-19T19:26:17.401Z,101954.47
2023-05-19T19:28:49.930Z,101945.22
2023-05-19T19:31:22.905Z,101958.72
2023-05-19T19:33:58.952Z,101963.59
2023-05-19T19:36:31.910Z,101960.53
2023-05-19T19:39:04.402Z,101966.97
2023-05-19T19:41:36.848Z,101966.56
2023-05-19T19:44:09.477Z,101967.56
2023-05-19T19:46:43.220Z,101974.41
2023-05-19T19:49:15.778Z,101976.38
2023-05-19T19:51:48.316Z,101971.47
2023-05-19T19:54:20.960Z,101983.66
2023-05-19T19:56:53.460Z,101977.81
2023-05-19T19:59:26.903Z,101984.25
2023-05-19T20:02:01.432Z,101992.47
2023-05-19T20:04:33.951Z,101991.94
2023-05-19T20:07:06.521Z,101989.34
2023-05-19T20:09:39.301Z,101984.94
2023-05-19T20:12:11.849Z,101985.16
2023-05-19T20:14:44.434Z,101983.63
2023-05-19T20:17:17.806Z,101986.41
2023-05-19T20:19:50.304Z,101989.31
2023-05-19T20:22:22.753Z,101989.53
2023-05-19T20:24:55.302Z,101994.94
2023-05-19T20:27:27.743Z,101999.63
2023-05-19T20:30:00.236Z,102002.56
2023-05-19T20:32:32.738Z,101994.63
2023-05-19T20:35:05.822Z,101991.25
2023-05-19T20:37:38.498Z,101987.91
2023-05-19T20:40:11.478Z,101989.69
2023-05-19T20:42:44.534Z,101993.34
2023-05-19T20:45:20.382Z,101998.84
2023-05-19T20:47:53.538Z,102007.00
2023-05-19T20:50:26.216Z,102002.81
2023-05-19T20:52:58.678Z,102000.25
2023-05-19T20:55:31.269Z,102000.31
2023-05-19T20:58:03.919Z,101998.69
2023-05-19T21:00:36.595Z,102004.13
2023-05-19T21:03:09.267Z,101999.59
2023-05-19T21:05:41.712Z,101997.84
2023-05-19T21:08:14.197Z,101997.03
2023-05-19T21:10:46.728Z,101997.16
2023-05-19T21:13:19.296Z,102000.66
2023-05-19T21:15:51.829Z,101992.94
2023-05-19T21:18:24.274Z,101994.63
2023-05-19T21:20:56.706Z,102001.78
2023-05-19T21:23:29.244Z,102008.09
2023-05-19T21:26:01.968Z,102008.25
2023-05-19T21:28:34.414Z,102010.06
2023-05-19T21:31:06.878Z,102008.56
2023-05-19T21:33:39.342Z,102012.84
2023-05-19T21:36:11.915Z,102005.91
2023-05-19T21:38:44.342Z,102004.94
2023-05-19T21:41:16.744Z,102000.44
2023-05-19T21:43:49.303Z,102009.28
2023-05-19T21:46:21.923Z,102011.09
2023-05-19T21:48:54.419Z,102004.06
2023-05-19T21:51:26.839Z,102001.50
2023-05-19T21:53:59.427Z,102009.63
2023-05-19T21:56:31.921Z,102014.88
2023-05-19T21:59:07.694Z,102011.47
2023-05-19T22:01:40.250Z,102010.53
2023-05-19T22:04:14.294Z,102005.22
2023-05-19T22:06:47.167Z,101997.22
2023-05-19T22:09:19.647Z,102006.25
2023-05-19T22:11:52.209Z,102001.91
2023-05-19T22:14:24.730Z,102001.09
2023-05-19T22:16:57.278Z,102002.81
2023-05-19T22:19:29.893Z,102009.19
2023-05-19T22:22:13.228Z,102007.44
2023-05-19T22:24:46.919Z,102006.84
2023-05-19T22:27:19.414Z,102004.91
2023-05-19T22:29:51.908Z,102010.25
2023-05-19T22:32:24.409Z,102000.59
2023-05-19T22:34:57.056Z,102006.97
2023-05-19T22:37:29.624Z,101999.03
2023-05-19T22:40:02.096Z,102001.69
2023-05-19T22:42:34.491Z,101992.81
2023-05-19T22:45:07.376Z,101994.66
2023-05-19T22:47:39.872Z,102004.56
2023-05-19T22:50:12.447Z,102005.50
2023-05-19T22:52:44.874Z,101995.78
2023-05-19T22:55:17.392Z,101995.66
2023-05-19T22:57:50.109Z,102000.97
2023-05-19T23:00:22.634Z,101992.19
2023-05-19T23:02:55.244Z,101993.03
2023-05-19T23:05:27.735Z,101997.53
2023-05-19T23:08:00.285Z,101992.13
2023-05-19T23:10:37.068Z,101994.78
2023-05-19T23:13:10.195Z,102004.56
2023-05-19T23:15:42.717Z,101997.50
2023-05-19T23:18:15.328Z,101999.25
2023-05-19T23:20:47.870Z,101998.75
2023-05-19T23:23:20.450Z,101995.09
2023-05-19T23:25:52.920Z,101998.72
2023-05-19T23:28:25.333Z,102003.38
2023-05-19T23:30:57.800Z,102008.66
2023-05-19T23:33:30.536Z,102004.19
2023-05-19T23:36:07.806Z,102004.19
2023-05-19T23:38:40.296Z,101999.00
2023-05-19T23:41:12.776Z,101997.28
2023-05-19T23:43:45.188Z,101998.28
2023-05-19T23:46:17.774Z,101992.84
2023-05-19T23:48:50.479Z,102005.50
2023-05-19T23:51:22.899Z,101995.00
2023-05-19T23:53:55.372Z,101992.25
2023-05-19T23:56:27.834Z,101997.44
2023-05-19T23:59:00.683Z,101999.34
